createdAt,value
2019-02-27T00:00:20.323Z,1.20
2019-02-27T00:02:48.972Z,1.10
2019-02-27T00:05:17.624Z,1.20
2019-02-27T00:07:46.278Z,1.20
2019-02-27T00:10:15.198Z,1.10
2019-02-27T00:12:43.856Z,1.10
2019-02-27T00:15:12.629Z,1.10
2019-02-27T00:17:41.304Z,1.20
2019-02-27T00:20:09.958Z,1.10
2019-02-27T00:22:38.609Z,1.00
2019-02-27T00:25:07.803Z,1.10
2019-02-27T00:27:36.460Z,1.00
2019-02-27T00:30:09.061Z,1.00
2019-02-27T00:32:37.664Z,1.10
2019-02-27T00:35:07.367Z,1.10
2019-02-27T00:37:36.163Z,1.10
2019-02-27T00:40:06.304Z,1.00
2019-02-27T00:42:35.992Z,0.90
2019-02-27T00:45:07.971Z,0.90
2019-02-27T00:47:36.626Z,1.00
2019-02-27T00:50:08.238Z,0.90
2019-02-27T00:52:36.889Z,0.90
2019-02-27T00:55:07.972Z,0.90
2019-02-27T00:57:36.572Z,0.90
2019-02-27T01:00:13.640Z,1.00
2019-02-27T01:02:42.377Z,0.90
2019-02-27T01:05:11.475Z,0.90
2019-02-27T01:07:40.295Z,0.90
2019-02-27T01:10:12.387Z,0.90
2019-02-27T01:12:41.716Z,0.80
2019-02-27T01:15:13.392Z,0.90
2019-02-27T01:17:42.546Z,0.80
2019-02-27T01:20:14.566Z,0.80
2019-02-27T01:22:43.230Z,0.70
2019-02-27T01:25:12.173Z,0.80
2019-02-27T01:27:40.834Z,0.90
2019-02-27T01:30:16.357Z,0.70
2019-02-27T01:32:45.048Z,0.60
2019-02-27T01:35:17.699Z,0.70
2019-02-27T01:37:44.565Z,0.60
2019-02-27T01:40:17.770Z,0.50
2019-02-27T01:42:45.321Z,0.40
2019-02-27T01:45:20.774Z,0.40
2019-02-27T01:47:46.170Z,0.50
2019-02-27T01:50:31.211Z,0.40
2019-02-27T01:53:00.239Z,0.40
2019-02-27T01:55:29.023Z,0.40
2019-02-27T01:57:57.634Z,0.40
2019-02-27T02:00:26.603Z,0.40
2019-02-27T02:02:55.255Z,0.40
2019-02-27T02:05:27.177Z,0.30
2019-02-27T02:07:55.616Z,0.40
2019-02-27T02:10:28.072Z,0.30
2019-02-27T02:13:04.870Z,0.20
2019-02-27T02:16:14.586Z,0.20
2019-02-27T02:19:02.925Z,0.30
2019-02-27T02:22:00.411Z,0.30
2019-02-27T02:25:11.715Z,0.40
2019-02-27T02:28:05.796Z,0.40
2019-02-27T02:30:51.680Z,0.60
2019-02-27T02:33:53.027Z,0.60
2019-02-27T02:36:52.029Z,0.70
2019-02-27T02:39:54.689Z,0.70
2019-02-27T02:42:52.699Z,0.60
2019-02-27T02:45:32.815Z,0.60
2019-02-27T02:48:38.368Z,0.50
2019-02-27T02:51:44.945Z,0.60
2019-02-27T02:54:18.278Z,0.70
2019-02-27T02:57:20.280Z,0.80
2019-02-27T03:00:12.770Z,0.80
2019-02-27T03:03:22.488Z,0.80
2019-02-27T03:06:01.991Z,0.80
2019-02-27T03:08:44.090Z,0.90
2019-02-27T03:11:44.490Z,0.80
2019-02-27T03:14:26.417Z,0.70
2019-02-27T03:17:08.563Z,0.70
2019-02-27T03:19:44.863Z,0.70
2019-02-27T03:22:33.197Z,0.70
2019-02-27T03:25:30.285Z,0.70
2019-02-27T03:28:32.278Z,0.60
2019-02-27T03:31:18.093Z,0.50
2019-02-27T03:34:12.919Z,0.60
2019-02-27T03:36:55.086Z,0.50
2019-02-27T03:40:00.233Z,0.40
2019-02-27T03:42:54.359Z,0.40
2019-02-27T03:45:38.911Z,0.30
2019-02-27T03:48:20.779Z,0.20
2019-02-27T03:51:36.664Z,0.30
2019-02-27T03:54:21.367Z,0.30
2019-02-27T03:57:26.606Z,0.50
2019-02-27T04:00:35.971Z,0.50
2019-02-27T04:03:25.737Z,0.60
2019-02-27T04:06:19.751Z,0.40
2019-02-27T04:08:57.186Z,0.50
2019-02-27T04:11:26.234Z,0.50
2019-02-27T04:13:55.042Z,0.50
2019-02-27T04:16:28.831Z,0.40
2019-02-27T04:18:54.186Z,0.60
2019-02-27T04:21:25.342Z,0.60
2019-02-27T04:23:53.383Z,0.70
2019-02-27T04:26:21.988Z,0.80
2019-02-27T04:28:50.641Z,0.80
2019-02-27T04:31:19.242Z,0.80
2019-02-27T04:33:47.939Z,0.80
2019-02-27T04:36:16.587Z,0.80
2019-02-27T04:38:45.311Z,0.80
2019-02-27T04:41:17.843Z,0.90
2019-02-27T04:43:44.299Z,0.80
2019-02-27T04:46:12.899Z,0.70
2019-02-27T04:48:41.546Z,0.70
2019-02-27T04:51:10.147Z,0.70
2019-02-27T04:53:40.708Z,0.70
2019-02-27T04:56:09.144Z,0.70
2019-02-27T04:58:37.748Z,0.70
2019-02-27T05:01:06.455Z,0.60
2019-02-27T05:03:35.059Z,0.60
2019-02-27T05:06:03.718Z,0.60
2019-02-27T05:08:32.363Z,0.50
2019-02-27T05:11:00.968Z,0.50
2019-02-27T05:13:29.622Z,0.50
2019-02-27T05:15:58.273Z,0.50
2019-02-27T05:18:29.295Z,0.40
2019-02-27T05:20:57.252Z,0.40
2019-02-27T05:23:25.856Z,0.40
2019-02-27T05:25:54.510Z,0.40
2019-02-27T05:28:23.117Z,0.50
2019-02-27T05:30:51.842Z,0.50
2019-02-27T05:33:20.494Z,0.60
2019-02-27T05:35:49.157Z,0.60
2019-02-27T05:38:17.760Z,0.60
2019-02-27T05:40:46.368Z,0.70
2019-02-27T05:43:15.023Z,0.60
2019-02-27T05:45:43.692Z,0.60
2019-02-27T05:48:12.347Z,0.60
2019-02-27T05:50:40.998Z,0.60
2019-02-27T05:53:10.590Z,0.70
2019-02-27T05:55:39.805Z,0.80
2019-02-27T05:58:08.577Z,0.80
2019-02-27T06:00:37.186Z,0.70
2019-02-27T06:03:05.795Z,0.70
2019-02-27T06:05:36.057Z,0.70
2019-02-27T06:08:04.856Z,0.80
2019-02-27T06:10:34.379Z,0.90
2019-02-27T06:13:04.069Z,0.70
2019-02-27T06:15:33.161Z,0.70
2019-02-27T06:18:01.940Z,0.60
2019-02-27T06:20:30.544Z,0.70
2019-02-27T06:22:59.206Z,0.70
2019-02-27T06:25:27.838Z,0.70
2019-02-27T06:27:56.476Z,0.60
2019-02-27T06:30:25.082Z,0.60
2019-02-27T06:32:53.738Z,0.70
2019-02-27T06:35:22.340Z,0.70
2019-02-27T06:37:51.448Z,0.80
2019-02-27T06:40:20.220Z,0.90
2019-02-27T06:42:53.438Z,0.80
2019-02-27T06:45:19.270Z,0.90
2019-02-27T06:47:47.921Z,0.90
2019-02-27T06:50:17.271Z,1.00
2019-02-27T06:52:45.992Z,1.10
2019-02-27T06:55:15.386Z,1.00
2019-02-27T06:57:44.208Z,1.00
2019-02-27T07:00:21.321Z,1.10
2019-02-27T07:02:49.966Z,1.20
2019-02-27T07:05:18.568Z,1.20
2019-02-27T07:07:47.216Z,1.30
2019-02-27T07:10:19.995Z,1.40
2019-02-27T07:12:47.918Z,1.40
2019-02-27T07:15:18.834Z,1.60
2019-02-27T07:17:47.651Z,1.70
2019-02-27T07:20:17.013Z,1.70
2019-02-27T07:22:46.652Z,1.60
2019-02-27T07:25:17.927Z,1.70
2019-02-27T07:27:46.533Z,1.80
2019-02-27T07:30:18.962Z,1.80
2019-02-27T07:32:47.609Z,2.00
2019-02-27T07:35:16.950Z,2.20
2019-02-27T07:37:48.010Z,2.40
2019-02-27T07:40:20.163Z,2.40
2019-02-27T07:42:48.783Z,2.60
2019-02-27T07:45:22.815Z,2.60
2019-02-27T07:47:51.551Z,2.70
2019-02-27T07:50:21.210Z,2.80
2019-02-27T07:52:51.919Z,2.80
2019-02-27T07:55:23.059Z,3.00
2019-02-27T07:57:50.738Z,3.10
2019-02-27T08:00:22.005Z,3.10
2019-02-27T08:02:51.077Z,3.10
2019-02-27T08:05:19.679Z,3.10
2019-02-27T08:07:49.067Z,3.10
2019-02-27T08:10:21.035Z,3.20
2019-02-27T08:12:49.688Z,3.20
2019-02-27T08:15:19.602Z,3.30
2019-02-27T08:17:48.658Z,3.30
2019-02-27T08:20:20.456Z,3.40
2019-02-27T08:22:49.579Z,3.40
2019-02-27T08:25:19.014Z,3.40
2019-02-27T08:27:47.839Z,3.50
2019-02-27T08:30:27.968Z,3.60
2019-02-27T08:32:56.580Z,3.70
2019-02-27T08:35:25.232Z,3.80
2019-02-27T08:38:02.255Z,3.90
2019-02-27T08:40:25.246Z,4.00
2019-02-27T08:42:54.175Z,4.10
2019-02-27T08:45:26.737Z,4.20
2019-02-27T08:47:55.733Z,4.40
2019-02-27T08:50:24.967Z,4.50
2019-02-27T08:52:53.581Z,4.60
2019-02-27T08:55:23.008Z,4.70
2019-02-27T08:57:55.854Z,4.80
2019-02-27T09:00:29.841Z,5.00
2019-02-27T09:03:02.456Z,5.10
2019-02-27T09:05:29.029Z,5.20
2019-02-27T09:07:57.680Z,5.30
2019-02-27T09:10:30.460Z,5.40
2019-02-27T09:13:04.956Z,5.60
2019-02-27T09:15:27.575Z,5.70
2019-02-27T09:17:56.231Z,5.80
2019-02-27T09:20:24.833Z,6.00
2019-02-27T09:22:53.492Z,6.10
2019-02-27T09:25:24.609Z,6.20
2019-02-27T09:27:52.473Z,6.30
2019-02-27T09:30:29.348Z,6.50
2019-02-27T09:32:57.800Z,6.60
2019-02-27T09:35:26.407Z,6.70
2019-02-27T09:37:55.068Z,7.00
2019-02-27T09:40:29.828Z,7.40
2019-02-27T09:42:58.793Z,7.90
2019-02-27T09:45:35.355Z,8.10
2019-02-27T09:48:04.847Z,8.20
2019-02-27T09:50:40.058Z,8.20
2019-02-27T09:53:08.881Z,8.50
2019-02-27T09:55:37.613Z,8.60
2019-02-27T09:58:11.115Z,8.80
2019-02-27T10:00:59.192Z,9.10
2019-02-27T10:03:24.928Z,9.20
2019-02-27T10:05:53.540Z,9.30
2019-02-27T10:08:25.288Z,9.40
2019-02-27T10:10:52.601Z,9.60
2019-02-27T10:13:21.254Z,9.60
2019-02-27T10:15:50.003Z,9.80
2019-02-27T10:18:21.881Z,9.80
2019-02-27T10:20:49.125Z,10.00
2019-02-27T10:23:18.051Z,10.20
2019-02-27T10:25:46.801Z,10.20
2019-02-27T10:28:15.421Z,10.40
2019-02-27T10:30:44.284Z,10.40
2019-02-27T10:33:13.030Z,10.50
2019-02-27T10:35:41.767Z,10.50
2019-02-27T10:38:10.384Z,10.60
2019-02-27T10:40:39.124Z,10.60
2019-02-27T10:43:07.777Z,10.80
2019-02-27T10:45:36.777Z,10.90
2019-02-27T10:48:05.436Z,10.90
2019-02-27T10:50:35.506Z,10.90
2019-02-27T10:53:04.478Z,11.00
2019-02-27T10:55:33.297Z,11.10
2019-02-27T10:58:02.274Z,11.20
2019-02-27T11:00:32.441Z,11.10
2019-02-27T11:03:02.058Z,11.30
2019-02-27T11:05:40.390Z,11.30
2019-02-27T11:08:09.006Z,11.40
2019-02-27T11:10:37.612Z,11.50
2019-02-27T11:13:07.087Z,11.60
2019-02-27T11:15:41.126Z,11.70
2019-02-27T11:18:06.437Z,11.70
2019-02-27T11:20:35.050Z,11.90
2019-02-27T11:23:06.457Z,11.90
2019-02-27T11:25:34.049Z,11.90
2019-02-27T11:28:02.705Z,12.00
2019-02-27T11:30:38.301Z,12.10
2019-02-27T11:33:07.141Z,12.10
2019-02-27T11:35:35.802Z,12.20
2019-02-27T11:38:04.460Z,12.30
2019-02-27T11:40:33.146Z,12.40
2019-02-27T11:43:06.577Z,12.50
2019-02-27T11:45:32.288Z,12.70
2019-02-27T11:48:00.901Z,12.70
2019-02-27T11:50:29.517Z,12.90
2019-02-27T11:53:01.797Z,13.00
2019-02-27T11:55:28.676Z,13.10
2019-02-27T11:57:57.351Z,13.20
2019-02-27T12:00:26.499Z,13.30
2019-02-27T12:02:55.973Z,13.30
2019-02-27T12:05:30.665Z,13.40
2019-02-27T12:07:56.431Z,13.50
2019-02-27T12:10:29.130Z,13.60
2019-02-27T12:13:00.707Z,13.60
2019-02-27T12:15:28.407Z,13.80
2019-02-27T12:17:59.941Z,13.80
2019-02-27T12:20:27.575Z,13.80
2019-02-27T12:22:56.183Z,13.80
2019-02-27T12:25:28.103Z,13.90
2019-02-27T12:27:55.179Z,14.00
2019-02-27T12:30:27.385Z,14.00
2019-02-27T12:32:57.052Z,14.20
2019-02-27T12:35:34.376Z,14.20
2019-02-27T12:38:06.830Z,14.20
2019-02-27T12:40:33.559Z,14.30
2019-02-27T12:43:02.294Z,14.30
2019-02-27T12:45:31.305Z,14.30
2019-02-27T12:48:00.027Z,14.50
2019-02-27T12:50:31.124Z,14.60
2019-02-27T12:53:00.209Z,14.60
2019-02-27T12:55:29.006Z,14.70
2019-02-27T12:57:57.661Z,14.70
2019-02-27T13:00:29.053Z,14.80
2019-02-27T13:02:59.130Z,14.90
2019-02-27T13:05:28.732Z,14.90
2019-02-27T13:07:57.562Z,15.00
2019-02-27T13:10:27.375Z,15.00
2019-02-27T13:12:56.042Z,15.00
2019-02-27T13:15:30.067Z,14.90
2019-02-27T13:17:58.954Z,15.00
2019-02-27T13:20:35.602Z,15.10
2019-02-27T13:23:05.332Z,15.00
2019-02-27T13:25:34.303Z,15.00
2019-02-27T13:28:02.925Z,15.20
2019-02-27T13:30:31.606Z,15.20
2019-02-27T13:33:01.279Z,15.30
2019-02-27T13:35:30.975Z,15.40
2019-02-27T13:37:59.645Z,15.30
2019-02-27T13:40:35.209Z,15.40
2019-02-27T13:43:01.257Z,15.40
2019-02-27T13:45:31.957Z,15.40
2019-02-27T13:48:04.645Z,15.40
2019-02-27T13:50:30.958Z,15.60
2019-02-27T13:52:59.637Z,15.60
2019-02-27T13:55:28.245Z,15.70
2019-02-27T13:57:59.210Z,15.70
2019-02-27T14:00:36.792Z,15.70
2019-02-27T14:03:05.668Z,15.80
2019-02-27T14:05:36.000Z,15.80
2019-02-27T14:08:05.105Z,15.80
2019-02-27T14:10:34.331Z,15.90
2019-02-27T14:13:02.947Z,15.90
2019-02-27T14:15:31.983Z,15.90
2019-02-27T14:18:00.669Z,16.00
2019-02-27T14:20:29.598Z,16.00
2019-02-27T14:22:58.385Z,16.10
2019-02-27T14:25:33.861Z,16.30
2019-02-27T14:28:02.542Z,16.50
2019-02-27T14:30:50.200Z,16.40
2019-02-27T14:33:19.562Z,16.20
2019-02-27T14:35:49.253Z,16.20
2019-02-27T14:38:17.869Z,16.10
2019-02-27T14:40:46.631Z,16.00
2019-02-27T14:43:15.291Z,16.10
2019-02-27T14:45:43.947Z,16.10
2019-02-27T14:48:12.607Z,16.10
2019-02-27T14:50:41.285Z,16.30
2019-02-27T14:53:09.943Z,17.50
2019-02-27T14:55:38.681Z,19.30
2019-02-27T14:58:07.364Z,19.90
2019-02-27T15:00:40.848Z,20.10
2019-02-27T15:03:07.967Z,20.20
2019-02-27T15:05:37.105Z,20.50
2019-02-27T15:08:06.963Z,21.10
2019-02-27T15:10:40.175Z,21.50
2019-02-27T15:13:06.011Z,21.30
2019-02-27T15:15:34.690Z,21.80
2019-02-27T15:18:03.818Z,21.70
2019-02-27T15:20:34.409Z,22.30
2019-02-27T15:23:02.771Z,22.50
2019-02-27T15:25:31.431Z,22.60
2019-02-27T15:28:00.088Z,21.90
2019-02-27T15:30:31.955Z,19.80
2019-02-27T15:33:03.856Z,18.50
2019-02-27T15:35:31.165Z,17.80
2019-02-27T15:37:59.883Z,17.30
2019-02-27T15:40:31.752Z,16.80
2019-02-27T15:43:00.477Z,16.50
2019-02-27T15:45:29.454Z,16.30
2019-02-27T15:47:58.134Z,16.10
2019-02-27T15:50:34.709Z,16.00
2019-02-27T15:53:03.701Z,15.80
2019-02-27T15:55:34.373Z,15.60
2019-02-27T15:58:02.792Z,15.50
2019-02-27T16:00:31.570Z,15.40
2019-02-27T16:03:00.187Z,15.20
2019-02-27T16:05:31.216Z,15.00
2019-02-27T16:07:59.518Z,14.90
2019-02-27T16:10:28.973Z,14.80
2019-02-27T16:13:00.895Z,14.60
2019-02-27T16:15:28.052Z,14.50
2019-02-27T16:17:56.706Z,14.30
2019-02-27T16:20:26.922Z,14.10
2019-02-27T16:22:55.578Z,13.80
2019-02-27T16:25:26.095Z,13.60
2019-02-27T16:27:54.820Z,13.50
2019-02-27T16:30:34.170Z,13.30
2019-02-27T16:33:02.829Z,13.20
2019-02-27T16:35:31.636Z,13.00
2019-02-27T16:38:00.352Z,12.80
2019-02-27T16:40:30.278Z,12.50
2019-02-27T16:42:58.959Z,12.30
2019-02-27T16:45:36.674Z,12.10
2019-02-27T16:48:04.335Z,11.90
2019-02-27T16:50:32.947Z,11.70
2019-02-27T16:53:01.547Z,11.40
2019-02-27T16:55:35.685Z,11.30
2019-02-27T16:58:02.005Z,11.20
2019-02-27T17:00:37.255Z,11.00
2019-02-27T17:03:05.863Z,10.90
2019-02-27T17:05:34.520Z,10.70
2019-02-27T17:08:03.192Z,10.50
2019-02-27T17:10:34.257Z,10.40
2019-02-27T17:13:02.939Z,10.10
2019-02-27T17:15:34.661Z,9.90
2019-02-27T17:18:01.927Z,9.70
2019-02-27T17:20:30.582Z,9.60
2019-02-27T17:22:59.186Z,9.40
2019-02-27T17:25:29.888Z,9.40
2019-02-27T17:27:58.182Z,9.30
2019-02-27T17:30:36.671Z,9.30
2019-02-27T17:33:04.089Z,9.10
2019-02-27T17:35:33.831Z,9.10
2019-02-27T17:38:03.184Z,9.10
2019-02-27T17:40:36.511Z,9.00
2019-02-27T17:43:02.330Z,8.80
2019-02-27T17:45:31.001Z,8.60
2019-02-27T17:47:59.657Z,8.60
2019-02-27T17:50:30.960Z,8.40
2019-02-27T17:52:58.657Z,8.50
2019-02-27T17:55:27.314Z,8.60
2019-02-27T17:57:58.446Z,8.60
2019-02-27T18:00:30.677Z,8.40
2019-02-27T18:02:59.342Z,8.30
2019-02-27T18:05:28.086Z,8.10
2019-02-27T18:07:56.688Z,8.00
2019-02-27T18:10:25.341Z,7.90
2019-02-27T18:13:01.400Z,7.80
2019-02-27T18:15:32.165Z,7.80
2019-02-27T18:18:02.303Z,7.50
2019-02-27T18:20:34.761Z,7.60
2019-02-27T18:23:06.931Z,7.60
2019-02-27T18:25:45.119Z,7.50
2019-02-27T18:28:14.442Z,7.30
2019-02-27T18:30:45.425Z,7.30
2019-02-27T18:33:17.334Z,7.10
2019-02-27T18:35:45.568Z,7.10
2019-02-27T18:38:14.340Z,7.00
2019-02-27T18:40:43.659Z,6.90
2019-02-27T18:43:12.380Z,6.80
2019-02-27T18:45:41.060Z,6.90
2019-02-27T18:48:10.043Z,6.70
2019-02-27T18:50:39.458Z,6.80
2019-02-27T18:53:12.931Z,7.10
2019-02-27T18:55:38.450Z,7.00
2019-02-27T18:58:07.119Z,6.90
2019-02-27T19:00:36.851Z,7.20
2019-02-27T19:03:11.734Z,7.10
2019-02-27T19:05:42.126Z,7.50
2019-02-27T19:08:10.790Z,7.80
2019-02-27T19:10:42.387Z,8.40
2019-02-27T19:13:10.587Z,8.30
2019-02-27T19:15:39.313Z,8.60
2019-02-27T19:18:07.941Z,9.40
2019-02-27T19:20:47.241Z,9.70
2019-02-27T19:23:17.634Z,9.80
2019-02-27T19:25:46.532Z,10.10
2019-02-27T19:28:15.205Z,10.30
2019-02-27T19:30:44.141Z,10.70
2019-02-27T19:33:13.063Z,10.90
2019-02-27T19:35:41.741Z,11.00
2019-02-27T19:38:12.898Z,11.30
2019-02-27T19:40:41.240Z,11.60
2019-02-27T19:43:10.085Z,11.50
2019-02-27T19:45:38.816Z,11.50
2019-02-27T19:48:07.542Z,11.50
2019-02-27T19:50:36.290Z,11.40
2019-02-27T19:53:06.974Z,11.60
2019-02-27T19:55:35.385Z,11.50
2019-02-27T19:58:04.155Z,11.60
2019-02-27T20:00:35.116Z,11.50
2019-02-27T20:03:04.548Z,11.70
2019-02-27T20:05:33.202Z,11.70
2019-02-27T20:08:02.565Z,11.80
2019-02-27T20:10:33.296Z,11.70
2019-02-27T20:13:02.257Z,11.60
2019-02-27T20:15:31.186Z,11.80
2019-02-27T20:17:59.795Z,11.70
2019-02-27T20:20:30.088Z,11.60
2019-02-27T20:22:59.041Z,11.50
2019-02-27T20:25:30.653Z,11.60
2019-02-27T20:27:59.473Z,11.60
2019-02-27T20:30:28.132Z,11.60
2019-02-27T20:32:59.821Z,11.60
2019-02-27T20:35:27.362Z,11.60
2019-02-27T20:37:56.281Z,11.60
2019-02-27T20:40:24.945Z,11.70
2019-02-27T20:42:55.080Z,11.70
2019-02-27T20:45:26.681Z,11.90
2019-02-27T20:48:00.564Z,11.80
2019-02-27T20:50:42.570Z,11.80
2019-02-27T20:53:13.850Z,12.00
2019-02-27T20:55:42.510Z,12.00
2019-02-27T20:58:16.158Z,11.90
2019-02-27T21:00:41.512Z,11.90
2019-02-27T21:03:10.118Z,11.90
2019-02-27T21:05:41.094Z,12.00
2019-02-27T21:08:09.464Z,12.00
2019-02-27T21:10:38.131Z,12.10
2019-02-27T21:13:06.811Z,12.00
2019-02-27T21:15:35.493Z,12.10
2019-02-27T21:18:04.150Z,12.00
2019-02-27T21:20:33.320Z,12.30
2019-02-27T21:23:02.195Z,12.20
2019-02-27T21:25:30.908Z,12.30
2019-02-27T21:27:59.587Z,12.20
2019-02-27T21:30:28.251Z,12.20
2019-02-27T21:32:56.862Z,12.30
2019-02-27T21:35:28.835Z,12.30
2019-02-27T21:37:55.903Z,12.20
2019-02-27T21:40:24.562Z,12.30
2019-02-27T21:42:53.173Z,12.40
2019-02-27T21:45:23.342Z,12.50
2019-02-27T21:47:52.940Z,12.50
2019-02-27T21:50:26.531Z,12.30
2019-02-27T21:52:55.805Z,12.30
2019-02-27T21:55:24.964Z,12.30
2019-02-27T21:57:53.702Z,12.20
2019-02-27T22:00:25.088Z,12.00
2019-02-27T22:03:04.052Z,12.00
2019-02-27T22:05:29.056Z,12.00
2019-02-27T22:07:57.783Z,12.10
2019-02-27T22:10:26.391Z,12.10
2019-02-27T22:12:55.052Z,12.10
2019-02-27T22:15:30.373Z,12.10
2019-02-27T22:17:59.229Z,12.00
2019-02-27T22:20:27.838Z,11.90
2019-02-27T22:22:56.658Z,12.00
2019-02-27T22:25:30.142Z,11.90
2019-02-27T22:27:55.729Z,11.80
2019-02-27T22:30:24.460Z,11.90
2019-02-27T22:32:53.069Z,11.70
2019-02-27T22:35:21.736Z,11.70
2019-02-27T22:37:52.489Z,11.60
2019-02-27T22:40:24.813Z,11.50
2019-02-27T22:42:53.493Z,11.50
2019-02-27T22:45:22.149Z,11.60
2019-02-27T22:47:54.004Z,11.50
2019-02-27T22:50:21.869Z,11.40
2019-02-27T22:52:54.147Z,11.50
2019-02-27T22:55:20.942Z,11.40
2019-02-27T22:57:49.736Z,11.30
2019-02-27T23:00:38.181Z,11.20
2019-02-27T23:03:06.914Z,11.00
2019-02-27T23:05:38.167Z,10.90
2019-02-27T23:08:06.067Z,10.90
2019-02-27T23:10:34.847Z,10.80
2019-02-27T23:13:03.673Z,10.60
2019-02-27T23:15:32.393Z,10.50
2019-02-27T23:18:02.596Z,10.50
2019-02-27T23:20:32.756Z,10.50
2019-02-27T23:23:02.654Z,10.40
2019-02-27T23:25:31.814Z,10.40
2019-02-27T23:28:00.948Z,10.30
2019-02-27T23:30:30.618Z,10.40
2019-02-27T23:32:59.395Z,10.30
2019-02-27T23:35:29.568Z,10.20
2019-02-27T23:38:02.937Z,10.10
2019-02-27T23:40:28.561Z,10.10
2019-02-27T23:43:02.400Z,10.20
2019-02-27T23:45:27.713Z,10.20
2019-02-27T23:47:56.381Z,10.30
2019-02-27T23:50:24.984Z,10.30
2019-02-27T23:52:53.972Z,10.30
2019-02-27T23:55:22.734Z,10.30
2019-02-27T23:57:51.392Z,10.50
